sensor_id;sensor_type;location;lat;lon;timestamp;P1;durP1;ratioP1;P2;durP2;ratioP2
23596;SDS011;40226;50.874;4.394;2024-01-11T00:02:09;69.68;;;30.25;;
23596;SDS011;40226;50.874;4.394;2024-01-11T00:04:35;64.47;;;28.70;;
23596;SDS011;40226;50.874;4.394;2024-01-11T00:07:01;66.32;;;30.60;;
23596;SDS011;40226;50.874;4.394;2024-01-11T00:09:26;61.97;;;27.88;;
23596;SDS011;40226;50.874;4.394;2024-01-11T00:11:52;71.07;;;28.23;;
23596;SDS011;40226;50.874;4.394;2024-01-11T00:14:17;65.72;;;29.52;;
23596;SDS011;40226;50.874;4.394;2024-01-11T00:16:43;70.50;;;28.80;;
23596;SDS011;40226;50.874;4.394;2024-01-11T00:19:08;63.05;;;29.33;;
23596;SDS011;40226;50.874;4.394;2024-01-11T00:21:34;72.07;;;29.30;;
23596;SDS011;40226;50.874;4.394;2024-01-11T00:24:00;68.85;;;30.40;;
23596;SDS011;40226;50.874;4.394;2024-01-11T00:26:26;66.38;;;28.55;;
23596;SDS011;40226;50.874;4.394;2024-01-11T00:28:51;64.18;;;28.80;;
23596;SDS011;40226;50.874;4.394;2024-01-11T00:31:17;65.10;;;27.73;;
23596;SDS011;40226;50.874;4.394;2024-01-11T00:33:42;62.05;;;27.98;;
23596;SDS011;40226;50.874;4.394;2024-01-11T00:36:08;69.10;;;28.55;;
23596;SDS011;40226;50.874;4.394;2024-01-11T00:38:33;65.70;;;28.98;;
23596;SDS011;40226;50.874;4.394;2024-01-11T00:40:59;65.32;;;29.17;;
23596;SDS011;40226;50.874;4.394;2024-01-11T00:43:25;66.47;;;29.40;;
23596;SDS011;40226;50.874;4.394;2024-01-11T00:45:50;69.07;;;27.48;;
23596;SDS011;40226;50.874;4.394;2024-01-11T00:48:16;74.80;;;30.42;;
23596;SDS011;40226;50.874;4.394;2024-01-11T00:50:41;75.28;;;31.27;;
23596;SDS011;40226;50.874;4.394;2024-01-11T00:53:07;96.38;;;33.63;;
23596;SDS011;40226;50.874;4.394;2024-01-11T00:55:33;82.82;;;33.05;;
23596;SDS011;40226;50.874;4.394;2024-01-11T00:57:59;83.63;;;31.88;;
23596;SDS011;40226;50.874;4.394;2024-01-11T01:00:24;71.53;;;29.98;;
23596;SDS011;40226;50.874;4.394;2024-01-11T01:02:50;71.97;;;30.88;;
23596;SDS011;40226;50.874;4.394;2024-01-11T01:05:15;70.93;;;31.20;;
23596;SDS011;40226;50.874;4.394;2024-01-11T01:07:41;72.38;;;31.40;;
23596;SDS011;40226;50.874;4.394;2024-01-11T01:10:07;74.72;;;32.90;;
23596;SDS011;40226;50.874;4.394;2024-01-11T01:12:33;75.70;;;32.50;;
23596;SDS011;40226;50.874;4.394;2024-01-11T01:14:59;79.90;;;32.78;;
23596;SDS011;40226;50.874;4.394;2024-01-11T01:17:24;73.15;;;31.17;;
23596;SDS011;40226;50.874;4.394;2024-01-11T01:19:50;71.85;;;30.35;;
23596;SDS011;40226;50.874;4.394;2024-01-11T01:22:16;72.85;;;29.45;;
23596;SDS011;40226;50.874;4.394;2024-01-11T01:24:41;70.47;;;30.67;;
23596;SDS011;40226;50.874;4.394;2024-01-11T01:27:07;70.82;;;30.15;;
23596;SDS011;40226;50.874;4.394;2024-01-11T01:29:32;76.22;;;29.83;;
23596;SDS011;40226;50.874;4.394;2024-01-11T01:31:58;71.28;;;29.50;;
23596;SDS011;40226;50.874;4.394;2024-01-11T01:34:23;73.90;;;29.95;;
23596;SDS011;40226;50.874;4.394;2024-01-11T01:36:49;62.65;;;28.33;;
23596;SDS011;40226;50.874;4.394;2024-01-11T01:39:14;69.38;;;29.63;;
23596;SDS011;40226;50.874;4.394;2024-01-11T01:41:40;69.53;;;28.77;;
23596;SDS011;40226;50.874;4.394;2024-01-11T01:44:06;63.97;;;29.08;;
23596;SDS011;40226;50.874;4.394;2024-01-11T01:46:32;68.70;;;30.17;;
23596;SDS011;40226;50.874;4.394;2024-01-11T01:48:59;71.60;;;29.50;;
23596;SDS011;40226;50.874;4.394;2024-01-11T01:51:26;63.78;;;28.05;;
23596;SDS011;40226;50.874;4.394;2024-01-11T01:53:55;68.93;;;28.63;;
23596;SDS011;40226;50.874;4.394;2024-01-11T01:56:22;68.43;;;29.85;;
23596;SDS011;40226;50.874;4.394;2024-01-11T01:58:49;64.95;;;28.40;;
23596;SDS011;40226;50.874;4.394;2024-01-11T02:01:16;61.00;;;27.85;;
23596;SDS011;40226;50.874;4.394;2024-01-11T02:03:43;68.90;;;29.55;;
23596;SDS011;40226;50.874;4.394;2024-01-11T02:06:11;65.30;;;28.75;;
23596;SDS011;40226;50.874;4.394;2024-01-11T02:08:38;69.85;;;30.02;;
23596;SDS011;40226;50.874;4.394;2024-01-11T02:11:07;67.28;;;28.48;;
23596;SDS011;40226;50.874;4.394;2024-01-11T02:13:33;63.95;;;28.02;;
23596;SDS011;40226;50.874;4.394;2024-01-11T02:15:59;64.00;;;28.10;;
23596;SDS011;40226;50.874;4.394;2024-01-11T02:18:24;73.55;;;30.88;;
23596;SDS011;40226;50.874;4.394;2024-01-11T02:20:50;66.72;;;29.00;;
23596;SDS011;40226;50.874;4.394;2024-01-11T02:23:17;65.60;;;29.02;;
23596;SDS011;40226;50.874;4.394;2024-01-11T02:25:45;71.35;;;27.52;;
23596;SDS011;40226;50.874;4.394;2024-01-11T02:28:11;65.22;;;29.05;;
23596;SDS011;40226;50.874;4.394;2024-01-11T02:30:37;68.30;;;28.73;;
23596;SDS011;40226;50.874;4.394;2024-01-11T02:33:03;67.85;;;29.23;;
23596;SDS011;40226;50.874;4.394;2024-01-11T02:35:30;68.63;;;29.48;;
23596;SDS011;40226;50.874;4.394;2024-01-11T02:37:57;70.68;;;28.40;;
23596;SDS011;40226;50.874;4.394;2024-01-11T02:40:24;65.60;;;28.27;;
23596;SDS011;40226;50.874;4.394;2024-01-11T02:42:51;63.38;;;29.08;;
23596;SDS011;40226;50.874;4.394;2024-01-11T02:45:17;71.30;;;29.70;;
23596;SDS011;40226;50.874;4.394;2024-01-11T02:47:43;73.18;;;29.35;;
23596;SDS011;40226;50.874;4.394;2024-01-11T02:50:09;71.30;;;29.60;;
23596;SDS011;40226;50.874;4.394;2024-01-11T02:52:36;63.83;;;28.52;;
23596;SDS011;40226;50.874;4.394;2024-01-11T02:55:02;68.47;;;30.15;;
23596;SDS011;40226;50.874;4.394;2024-01-11T02:57:28;73.78;;;30.25;;
23596;SDS011;40226;50.874;4.394;2024-01-11T02:59:54;71.47;;;29.95;;
23596;SDS011;40226;50.874;4.394;2024-01-11T03:02:19;67.20;;;28.95;;
23596;SDS011;40226;50.874;4.394;2024-01-11T03:04:45;71.10;;;29.05;;
23596;SDS011;40226;50.874;4.394;2024-01-11T03:07:11;71.72;;;30.60;;
23596;SDS011;40226;50.874;4.394;2024-01-11T03:09:36;70.53;;;29.33;;
23596;SDS011;40226;50.874;4.394;2024-01-11T03:12:02;66.60;;;28.85;;
23596;SDS011;40226;50.874;4.394;2024-01-11T03:14:28;72.65;;;29.75;;
23596;SDS011;40226;50.874;4.394;2024-01-11T03:16:53;67.72;;;29.35;;
23596;SDS011;40226;50.874;4.394;2024-01-11T03:19:19;69.88;;;28.90;;
23596;SDS011;40226;50.874;4.394;2024-01-11T03:21:45;63.45;;;27.80;;
23596;SDS011;40226;50.874;4.394;2024-01-11T03:24:11;74.15;;;30.08;;
23596;SDS011;40226;50.874;4.394;2024-01-11T03:26:38;67.75;;;28.77;;
23596;SDS011;40226;50.874;4.394;2024-01-11T03:29:03;68.95;;;29.25;;
23596;SDS011;40226;50.874;4.394;2024-01-11T03:31:29;65.15;;;29.35;;
23596;SDS011;40226;50.874;4.394;2024-01-11T03:33:55;68.00;;;28.90;;
23596;SDS011;40226;50.874;4.394;2024-01-11T03:36:22;70.95;;;30.95;;
23596;SDS011;40226;50.874;4.394;2024-01-11T03:38:49;73.18;;;29.95;;
23596;SDS011;40226;50.874;4.394;2024-01-11T03:41:15;67.65;;;30.23;;
23596;SDS011;40226;50.874;4.394;2024-01-11T03:43:41;71.38;;;29.25;;
23596;SDS011;40226;50.874;4.394;2024-01-11T03:46:07;70.50;;;30.65;;
23596;SDS011;40226;50.874;4.394;2024-01-11T03:48:32;67.90;;;29.70;;
23596;SDS011;40226;50.874;4.394;2024-01-11T03:51:00;71.55;;;28.88;;
23596;SDS011;40226;50.874;4.394;2024-01-11T03:53:26;68.22;;;28.50;;
23596;SDS011;40226;50.874;4.394;2024-01-11T03:55:51;63.13;;;28.80;;
23596;SDS011;40226;50.874;4.394;2024-01-11T03:58:17;65.95;;;28.67;;
23596;SDS011;40226;50.874;4.394;2024-01-11T04:00:43;68.63;;;28.50;;
23596;SDS011;40226;50.874;4.394;2024-01-11T04:03:08;59.20;;;28.10;;
23596;SDS011;40226;50.874;4.394;2024-01-11T04:05:34;67.28;;;28.73;;
23596;SDS011;40226;50.874;4.394;2024-01-11T04:07:59;67.22;;;28.63;;
23596;SDS011;40226;50.874;4.394;2024-01-11T04:10:28;67.88;;;28.35;;
23596;SDS011;40226;50.874;4.394;2024-01-11T04:12:53;59.92;;;27.65;;
23596;SDS011;40226;50.874;4.394;2024-01-11T04:15:19;70.57;;;28.23;;
23596;SDS011;40226;50.874;4.394;2024-01-11T04:17:45;66.80;;;29.23;;
23596;SDS011;40226;50.874;4.394;2024-01-11T04:20:10;66.85;;;29.20;;
23596;SDS011;40226;50.874;4.394;2024-01-11T04:22:36;70.13;;;28.05;;
23596;SDS011;40226;50.874;4.394;2024-01-11T04:25:02;61.65;;;27.60;;
23596;SDS011;40226;50.874;4.394;2024-01-11T04:27:27;64.05;;;28.67;;
23596;SDS011;40226;50.874;4.394;2024-01-11T04:29:53;68.25;;;28.05;;
23596;SDS011;40226;50.874;4.394;2024-01-11T04:32:19;74.80;;;30.35;;
23596;SDS011;40226;50.874;4.394;2024-01-11T04:34:45;67.28;;;28.48;;
23596;SDS011;40226;50.874;4.394;2024-01-11T04:37:10;69.95;;;28.50;;
23596;SDS011;40226;50.874;4.394;2024-01-11T04:39:36;63.65;;;27.25;;
23596;SDS011;40226;50.874;4.394;2024-01-11T04:42:01;60.88;;;27.67;;
23596;SDS011;40226;50.874;4.394;2024-01-11T04:44:27;68.93;;;28.60;;
23596;SDS011;40226;50.874;4.394;2024-01-11T04:46:53;66.25;;;27.02;;
23596;SDS011;40226;50.874;4.394;2024-01-11T04:49:18;68.63;;;29.45;;
23596;SDS011;40226;50.874;4.394;2024-01-11T04:51:44;65.38;;;28.33;;
23596;SDS011;40226;50.874;4.394;2024-01-11T04:54:09;68.32;;;29.75;;
23596;SDS011;40226;50.874;4.394;2024-01-11T04:56:35;68.43;;;28.20;;
23596;SDS011;40226;50.874;4.394;2024-01-11T04:59:01;64.65;;;28.55;;
23596;SDS011;40226;50.874;4.394;2024-01-11T05:01:26;65.45;;;28.50;;
23596;SDS011;40226;50.874;4.394;2024-01-11T05:03:52;70.65;;;28.80;;
23596;SDS011;40226;50.874;4.394;2024-01-11T05:06:18;66.47;;;29.40;;
23596;SDS011;40226;50.874;4.394;2024-01-11T05:08:46;72.97;;;29.27;;
23596;SDS011;40226;50.874;4.394;2024-01-11T05:11:18;66.63;;;29.40;;
23596;SDS011;40226;50.874;4.394;2024-01-11T05:16:25;65.03;;;26.95;;
23596;SDS011;40226;50.874;4.394;2024-01-11T05:18:52;69.82;;;28.75;;
23596;SDS011;40226;50.874;4.394;2024-01-11T05:21:19;66.82;;;28.40;;
23596;SDS011;40226;50.874;4.394;2024-01-11T05:23:45;75.70;;;30.67;;
23596;SDS011;40226;50.874;4.394;2024-01-11T05:26:10;71.20;;;28.73;;
23596;SDS011;40226;50.874;4.394;2024-01-11T05:28:37;67.57;;;28.98;;
23596;SDS011;40226;50.874;4.394;2024-01-11T05:31:08;72.28;;;30.20;;
23596;SDS011;40226;50.874;4.394;2024-01-11T05:33:40;68.35;;;30.27;;
23596;SDS011;40226;50.874;4.394;2024-01-11T05:36:06;72.57;;;29.83;;
23596;SDS011;40226;50.874;4.394;2024-01-11T05:38:32;69.70;;;29.83;;
23596;SDS011;40226;50.874;4.394;2024-01-11T05:40:58;71.60;;;30.67;;
23596;SDS011;40226;50.874;4.394;2024-01-11T05:43:24;68.15;;;31.00;;
23596;SDS011;40226;50.874;4.394;2024-01-11T05:45:50;76.70;;;30.75;;
23596;SDS011;40226;50.874;4.394;2024-01-11T05:48:16;74.22;;;29.85;;
23596;SDS011;40226;50.874;4.394;2024-01-11T05:50:42;71.63;;;29.75;;
23596;SDS011;40226;50.874;4.394;2024-01-11T05:53:08;73.80;;;30.45;;
23596;SDS011;40226;50.874;4.394;2024-01-11T05:55:34;69.75;;;30.55;;
23596;SDS011;40226;50.874;4.394;2024-01-11T05:58:00;72.13;;;30.60;;
23596;SDS011;40226;50.874;4.394;2024-01-11T06:00:26;75.65;;;31.10;;
23596;SDS011;40226;50.874;4.394;2024-01-11T06:02:52;73.10;;;30.58;;
23596;SDS011;40226;50.874;4.394;2024-01-11T06:05:17;76.78;;;32.38;;
23596;SDS011;40226;50.874;4.394;2024-01-11T06:07:43;78.43;;;31.67;;
23596;SDS011;40226;50.874;4.394;2024-01-11T06:10:08;78.43;;;32.20;;
23596;SDS011;40226;50.874;4.394;2024-01-11T06:12:35;74.55;;;31.30;;
23596;SDS011;40226;50.874;4.394;2024-01-11T06:15:01;83.07;;;33.40;;
23596;SDS011;40226;50.874;4.394;2024-01-11T06:17:26;77.93;;;30.25;;
23596;SDS011;40226;50.874;4.394;2024-01-11T06:19:52;67.40;;;29.70;;
23596;SDS011;40226;50.874;4.394;2024-01-11T06:22:18;75.68;;;30.20;;
23596;SDS011;40226;50.874;4.394;2024-01-11T06:24:44;75.97;;;29.27;;
23596;SDS011;40226;50.874;4.394;2024-01-11T06:27:10;78.40;;;31.98;;
23596;SDS011;40226;50.874;4.394;2024-01-11T06:29:35;79.07;;;31.27;;
23596;SDS011;40226;50.874;4.394;2024-01-11T06:32:01;78.80;;;33.45;;
23596;SDS011;40226;50.874;4.394;2024-01-11T06:34:27;73.57;;;31.02;;
23596;SDS011;40226;50.874;4.394;2024-01-11T06:36:53;75.32;;;30.27;;
23596;SDS011;40226;50.874;4.394;2024-01-11T06:39:20;74.28;;;30.60;;
23596;SDS011;40226;50.874;4.394;2024-01-11T06:41:45;74.35;;;32.88;;
23596;SDS011;40226;50.874;4.394;2024-01-11T06:44:11;84.43;;;31.45;;
23596;SDS011;40226;50.874;4.394;2024-01-11T06:46:37;74.88;;;30.52;;
23596;SDS011;40226;50.874;4.394;2024-01-11T06:49:06;75.40;;;32.30;;
23596;SDS011;40226;50.874;4.394;2024-01-11T06:51:32;71.72;;;31.23;;
23596;SDS011;40226;50.874;4.394;2024-01-11T06:53:59;76.30;;;30.67;;
23596;SDS011;40226;50.874;4.394;2024-01-11T06:56:26;77.30;;;31.15;;
23596;SDS011;40226;50.874;4.394;2024-01-11T06:58:52;73.80;;;32.10;;
23596;SDS011;40226;50.874;4.394;2024-01-11T07:01:17;79.25;;;31.45;;
23596;SDS011;40226;50.874;4.394;2024-01-11T07:03:43;76.53;;;31.88;;
23596;SDS011;40226;50.874;4.394;2024-01-11T07:06:09;87.20;;;32.38;;
23596;SDS011;40226;50.874;4.394;2024-01-11T07:08:35;70.35;;;31.48;;
23596;SDS011;40226;50.874;4.394;2024-01-11T07:11:01;77.53;;;31.63;;
23596;SDS011;40226;50.874;4.394;2024-01-11T07:13:28;79.43;;;32.33;;
23596;SDS011;40226;50.874;4.394;2024-01-11T07:15:54;73.15;;;31.58;;
23596;SDS011;40226;50.874;4.394;2024-01-11T07:18:20;84.38;;;31.95;;
23596;SDS011;40226;50.874;4.394;2024-01-11T07:20:46;85.40;;;33.20;;
23596;SDS011;40226;50.874;4.394;2024-01-11T07:23:13;77.40;;;32.03;;
23596;SDS011;40226;50.874;4.394;2024-01-11T07:25:38;81.03;;;32.97;;
23596;SDS011;40226;50.874;4.394;2024-01-11T07:28:05;76.25;;;32.85;;
23596;SDS011;40226;50.874;4.394;2024-01-11T07:30:31;81.43;;;33.33;;
23596;SDS011;40226;50.874;4.394;2024-01-11T07:32:57;83.75;;;32.83;;
23596;SDS011;40226;50.874;4.394;2024-01-11T07:35:22;76.32;;;32.00;;
23596;SDS011;40226;50.874;4.394;2024-01-11T07:37:48;85.90;;;34.40;;
23596;SDS011;40226;50.874;4.394;2024-01-11T07:40:15;91.10;;;35.58;;
23596;SDS011;40226;50.874;4.394;2024-01-11T07:42:41;77.38;;;33.17;;
23596;SDS011;40226;50.874;4.394;2024-01-11T07:45:07;81.55;;;33.33;;
23596;SDS011;40226;50.874;4.394;2024-01-11T07:47:36;74.72;;;31.15;;
23596;SDS011;40226;50.874;4.394;2024-01-11T07:50:03;79.53;;;32.55;;
23596;SDS011;40226;50.874;4.394;2024-01-11T07:52:33;75.55;;;32.55;;
23596;SDS011;40226;50.874;4.394;2024-01-11T07:54:58;85.70;;;33.78;;
23596;SDS011;40226;50.874;4.394;2024-01-11T07:57:34;79.03;;;33.72;;
23596;SDS011;40226;50.874;4.394;2024-01-11T08:00:00;80.22;;;33.35;;
23596;SDS011;40226;50.874;4.394;2024-01-11T08:02:26;78.60;;;34.42;;
23596;SDS011;40226;50.874;4.394;2024-01-11T08:04:51;86.60;;;34.22;;
23596;SDS011;40226;50.874;4.394;2024-01-11T08:07:17;84.72;;;34.10;;
23596;SDS011;40226;50.874;4.394;2024-01-11T08:09:43;77.68;;;32.53;;
23596;SDS011;40226;50.874;4.394;2024-01-11T08:12:12;78.03;;;33.92;;
23596;SDS011;40226;50.874;4.394;2024-01-11T08:14:38;80.85;;;34.25;;
23596;SDS011;40226;50.874;4.394;2024-01-11T08:17:04;93.85;;;34.30;;
23596;SDS011;40226;50.874;4.394;2024-01-11T08:19:30;81.47;;;33.50;;
23596;SDS011;40226;50.874;4.394;2024-01-11T08:21:56;82.45;;;34.17;;
23596;SDS011;40226;50.874;4.394;2024-01-11T08:24:22;90.30;;;32.92;;
23596;SDS011;40226;50.874;4.394;2024-01-11T08:26:48;95.47;;;34.45;;
23596;SDS011;40226;50.874;4.394;2024-01-11T08:29:14;84.03;;;34.55;;
23596;SDS011;40226;50.874;4.394;2024-01-11T08:31:40;80.78;;;33.53;;
23596;SDS011;40226;50.874;4.394;2024-01-11T08:34:05;81.50;;;33.92;;
23596;SDS011;40226;50.874;4.394;2024-01-11T08:36:31;75.90;;;32.80;;
23596;SDS011;40226;50.874;4.394;2024-01-11T08:39:01;90.00;;;35.50;;
23596;SDS011;40226;50.874;4.394;2024-01-11T08:41:31;82.82;;;34.08;;
23596;SDS011;40226;50.874;4.394;2024-01-11T08:43:57;76.65;;;33.97;;
23596;SDS011;40226;50.874;4.394;2024-01-11T08:46:26;84.13;;;35.35;;
23596;SDS011;40226;50.874;4.394;2024-01-11T08:48:52;83.35;;;35.55;;
23596;SDS011;40226;50.874;4.394;2024-01-11T08:51:19;89.05;;;35.15;;
23596;SDS011;40226;50.874;4.394;2024-01-11T08:53:44;88.60;;;33.35;;
23596;SDS011;40226;50.874;4.394;2024-01-11T08:56:10;78.68;;;34.85;;
23596;SDS011;40226;50.874;4.394;2024-01-11T08:58:36;87.32;;;35.47;;
23596;SDS011;40226;50.874;4.394;2024-01-11T09:01:02;81.18;;;34.70;;
23596;SDS011;40226;50.874;4.394;2024-01-11T09:03:28;81.97;;;33.83;;
23596;SDS011;40226;50.874;4.394;2024-01-11T09:05:54;88.57;;;35.95;;
23596;SDS011;40226;50.874;4.394;2024-01-11T09:08:22;87.07;;;34.88;;
23596;SDS011;40226;50.874;4.394;2024-01-11T09:10:48;89.72;;;34.20;;
23596;SDS011;40226;50.874;4.394;2024-01-11T09:13:14;86.30;;;35.10;;
23596;SDS011;40226;50.874;4.394;2024-01-11T09:15:40;78.40;;;33.95;;
23596;SDS011;40226;50.874;4.394;2024-01-11T09:18:06;79.35;;;34.25;;
23596;SDS011;40226;50.874;4.394;2024-01-11T09:20:32;80.68;;;33.83;;
23596;SDS011;40226;50.874;4.394;2024-01-11T09:22:58;90.80;;;35.95;;
23596;SDS011;40226;50.874;4.394;2024-01-11T09:25:24;88.50;;;36.20;;
23596;SDS011;40226;50.874;4.394;2024-01-11T09:27:50;85.35;;;35.47;;
23596;SDS011;40226;50.874;4.394;2024-01-11T09:30:15;82.20;;;33.83;;
23596;SDS011;40226;50.874;4.394;2024-01-11T09:32:41;84.30;;;35.40;;
23596;SDS011;40226;50.874;4.394;2024-01-11T09:35:07;88.45;;;35.55;;
23596;SDS011;40226;50.874;4.394;2024-01-11T09:37:33;81.40;;;35.72;;
23596;SDS011;40226;50.874;4.394;2024-01-11T09:39:59;84.82;;;36.55;;
23596;SDS011;40226;50.874;4.394;2024-01-11T09:42:25;90.32;;;39.72;;
23596;SDS011;40226;50.874;4.394;2024-01-11T09:44:53;85.45;;;36.53;;
23596;SDS011;40226;50.874;4.394;2024-01-11T09:47:20;85.38;;;35.92;;
23596;SDS011;40226;50.874;4.394;2024-01-11T09:49:47;84.75;;;35.45;;
23596;SDS011;40226;50.874;4.394;2024-01-11T09:52:19;86.10;;;35.08;;
23596;SDS011;40226;50.874;4.394;2024-01-11T09:54:47;81.75;;;35.08;;
23596;SDS011;40226;50.874;4.394;2024-01-11T09:57:13;80.80;;;35.30;;
23596;SDS011;40226;50.874;4.394;2024-01-11T09:59:44;83.80;;;35.53;;
23596;SDS011;40226;50.874;4.394;2024-01-11T10:02:10;85.68;;;36.38;;
23596;SDS011;40226;50.874;4.394;2024-01-11T10:04:37;85.82;;;35.83;;
23596;SDS011;40226;50.874;4.394;2024-01-11T10:07:03;81.70;;;35.97;;
23596;SDS011;40226;50.874;4.394;2024-01-11T10:09:31;85.55;;;36.60;;
23596;SDS011;40226;50.874;4.394;2024-01-11T10:11:56;88.53;;;37.28;;
23596;SDS011;40226;50.874;4.394;2024-01-11T10:14:22;87.15;;;36.25;;
23596;SDS011;40226;50.874;4.394;2024-01-11T10:16:48;81.10;;;35.72;;
23596;SDS011;40226;50.874;4.394;2024-01-11T10:19:14;92.45;;;35.80;;
23596;SDS011;40226;50.874;4.394;2024-01-11T10:21:41;86.22;;;35.58;;
23596;SDS011;40226;50.874;4.394;2024-01-11T10:24:07;92.22;;;37.65;;
23596;SDS011;40226;50.874;4.394;2024-01-11T10:26:32;87.60;;;38.00;;
23596;SDS011;40226;50.874;4.394;2024-01-11T10:28:59;95.05;;;37.25;;
23596;SDS011;40226;50.874;4.394;2024-01-11T10:31:27;78.40;;;35.55;;
23596;SDS011;40226;50.874;4.394;2024-01-11T10:33:54;75.75;;;33.92;;
23596;SDS011;40226;50.874;4.394;2024-01-11T10:36:19;78.97;;;33.80;;
23596;SDS011;40226;50.874;4.394;2024-01-11T10:38:45;71.95;;;33.17;;
23596;SDS011;40226;50.874;4.394;2024-01-11T10:41:12;71.03;;;32.65;;
23596;SDS011;40226;50.874;4.394;2024-01-11T10:43:42;73.78;;;33.42;;
23596;SDS011;40226;50.874;4.394;2024-01-11T10:46:10;70.60;;;33.00;;
23596;SDS011;40226;50.874;4.394;2024-01-11T10:48:38;71.13;;;32.28;;
23596;SDS011;40226;50.874;4.394;2024-01-11T10:51:08;68.90;;;31.88;;
23596;SDS011;40226;50.874;4.394;2024-01-11T10:53:42;73.07;;;32.67;;
23596;SDS011;40226;50.874;4.394;2024-01-11T10:56:10;70.78;;;32.53;;
23596;SDS011;40226;50.874;4.394;2024-01-11T10:58:41;76.68;;;32.42;;
23596;SDS011;40226;50.874;4.394;2024-01-11T11:01:07;68.70;;;32.40;;
23596;SDS011;40226;50.874;4.394;2024-01-11T11:03:37;74.00;;;34.85;;
23596;SDS011;40226;50.874;4.394;2024-01-11T11:06:06;73.55;;;33.45;;
23596;SDS011;40226;50.874;4.394;2024-01-11T11:08:33;68.32;;;33.42;;
23596;SDS011;40226;50.874;4.394;2024-01-11T11:11:00;66.78;;;32.40;;
23596;SDS011;40226;50.874;4.394;2024-01-11T11:13:28;68.35;;;32.92;;
23596;SDS011;40226;50.874;4.394;2024-01-11T11:15:54;68.43;;;32.92;;
23596;SDS011;40226;50.874;4.394;2024-01-11T11:18:22;68.57;;;32.08;;
23596;SDS011;40226;50.874;4.394;2024-01-11T11:20:49;71.97;;;32.85;;
23596;SDS011;40226;50.874;4.394;2024-01-11T11:23:16;80.07;;;33.70;;
23596;SDS011;40226;50.874;4.394;2024-01-11T11:25:47;65.88;;;31.38;;
23596;SDS011;40226;50.874;4.394;2024-01-11T11:28:14;71.68;;;33.65;;
23596;SDS011;40226;50.874;4.394;2024-01-11T11:30:43;74.03;;;31.67;;
23596;SDS011;40226;50.874;4.394;2024-01-11T11:33:16;66.15;;;31.35;;
23596;SDS011;40226;50.874;4.394;2024-01-11T11:35:43;68.25;;;32.40;;
23596;SDS011;40226;50.874;4.394;2024-01-11T11:38:21;68.00;;;30.30;;
23596;SDS011;40226;50.874;4.394;2024-01-11T11:40:54;95.38;;;40.72;;
23596;SDS011;40226;50.874;4.394;2024-01-11T11:43:21;68.03;;;31.55;;
23596;SDS011;40226;50.874;4.394;2024-01-11T11:45:48;68.55;;;31.85;;
23596;SDS011;40226;50.874;4.394;2024-01-11T11:51:09;65.60;;;30.55;;
23596;SDS011;40226;50.874;4.394;2024-01-11T11:53:40;58.45;;;30.52;;
23596;SDS011;40226;50.874;4.394;2024-01-11T11:56:06;59.58;;;30.58;;
23596;SDS011;40226;50.874;4.394;2024-01-11T11:58:34;60.00;;;29.48;;
23596;SDS011;40226;50.874;4.394;2024-01-11T12:01:00;65.63;;;30.05;;
23596;SDS011;40226;50.874;4.394;2024-01-11T12:03:30;66.63;;;30.38;;
23596;SDS011;40226;50.874;4.394;2024-01-11T12:06:03;64.43;;;30.98;;
23596;SDS011;40226;50.874;4.394;2024-01-11T12:08:31;73.38;;;30.08;;
23596;SDS011;40226;50.874;4.394;2024-01-11T12:10:57;63.58;;;29.88;;
23596;SDS011;40226;50.874;4.394;2024-01-11T12:13:24;73.95;;;33.30;;
23596;SDS011;40226;50.874;4.394;2024-01-11T12:15:50;59.15;;;28.50;;
23596;SDS011;40226;50.874;4.394;2024-01-11T12:18:16;68.38;;;30.23;;
23596;SDS011;40226;50.874;4.394;2024-01-11T12:20:42;63.10;;;29.08;;
23596;SDS011;40226;50.874;4.394;2024-01-11T12:23:08;61.50;;;30.02;;
23596;SDS011;40226;50.874;4.394;2024-01-11T12:25:34;59.55;;;27.60;;
23596;SDS011;40226;50.874;4.394;2024-01-11T12:28:00;66.28;;;29.60;;
23596;SDS011;40226;50.874;4.394;2024-01-11T12:30:26;53.72;;;27.83;;
23596;SDS011;40226;50.874;4.394;2024-01-11T12:32:55;57.90;;;27.73;;
23596;SDS011;40226;50.874;4.394;2024-01-11T12:35:21;61.65;;;27.75;;
23596;SDS011;40226;50.874;4.394;2024-01-11T12:38:03;65.28;;;26.85;;
23596;SDS011;40226;50.874;4.394;2024-01-11T12:40:37;58.25;;;27.02;;
23596;SDS011;40226;50.874;4.394;2024-01-11T12:43:03;49.58;;;26.77;;
23596;SDS011;40226;50.874;4.394;2024-01-11T12:45:29;56.30;;;28.63;;
23596;SDS011;40226;50.874;4.394;2024-01-11T12:47:57;57.78;;;29.13;;
23596;SDS011;40226;50.874;4.394;2024-01-11T12:50:24;59.88;;;27.75;;
23596;SDS011;40226;50.874;4.394;2024-01-11T12:55:42;55.13;;;27.30;;
23596;SDS011;40226;50.874;4.394;2024-01-11T12:58:12;55.13;;;27.45;;
23596;SDS011;40226;50.874;4.394;2024-01-11T13:00:38;64.57;;;28.10;;
23596;SDS011;40226;50.874;4.394;2024-01-11T13:03:04;53.85;;;26.15;;
23596;SDS011;40226;50.874;4.394;2024-01-11T13:05:30;58.45;;;26.08;;
23596;SDS011;40226;50.874;4.394;2024-01-11T13:08:00;53.45;;;25.52;;
23596;SDS011;40226;50.874;4.394;2024-01-11T13:10:27;63.15;;;35.05;;
23596;SDS011;40226;50.874;4.394;2024-01-11T13:12:53;53.45;;;26.20;;
23596;SDS011;40226;50.874;4.394;2024-01-11T13:15:20;52.03;;;26.50;;
23596;SDS011;40226;50.874;4.394;2024-01-11T13:17:45;57.55;;;26.65;;
23596;SDS011;40226;50.874;4.394;2024-01-11T13:20:11;54.65;;;26.17;;
23596;SDS011;40226;50.874;4.394;2024-01-11T13:22:36;53.67;;;26.05;;
23596;SDS011;40226;50.874;4.394;2024-01-11T13:25:02;56.65;;;27.00;;
23596;SDS011;40226;50.874;4.394;2024-01-11T13:27:29;53.05;;;25.63;;
23596;SDS011;40226;50.874;4.394;2024-01-11T13:29:56;57.72;;;26.23;;
23596;SDS011;40226;50.874;4.394;2024-01-11T13:32:23;47.70;;;24.60;;
23596;SDS011;40226;50.874;4.394;2024-01-11T13:34:48;65.95;;;25.75;;
23596;SDS011;40226;50.874;4.394;2024-01-11T13:37:18;51.85;;;24.92;;
23596;SDS011;40226;50.874;4.394;2024-01-11T13:39:44;56.60;;;25.42;;
23596;SDS011;40226;50.874;4.394;2024-01-11T13:42:09;55.60;;;25.63;;
23596;SDS011;40226;50.874;4.394;2024-01-11T13:44:35;50.35;;;25.05;;
23596;SDS011;40226;50.874;4.394;2024-01-11T13:47:01;52.20;;;25.00;;
23596;SDS011;40226;50.874;4.394;2024-01-11T13:49:27;45.60;;;23.95;;
23596;SDS011;40226;50.874;4.394;2024-01-11T13:51:53;51.78;;;25.38;;
23596;SDS011;40226;50.874;4.394;2024-01-11T13:54:19;46.00;;;24.77;;
23596;SDS011;40226;50.874;4.394;2024-01-11T13:56:46;52.58;;;25.27;;
23596;SDS011;40226;50.874;4.394;2024-01-11T13:59:11;52.83;;;24.55;;
23596;SDS011;40226;50.874;4.394;2024-01-11T14:01:37;52.47;;;25.02;;
23596;SDS011;40226;50.874;4.394;2024-01-11T14:04:03;53.65;;;25.48;;
23596;SDS011;40226;50.874;4.394;2024-01-11T14:06:29;49.08;;;24.30;;
23596;SDS011;40226;50.874;4.394;2024-01-11T14:08:55;55.05;;;25.45;;
23596;SDS011;40226;50.874;4.394;2024-01-11T14:11:20;49.70;;;23.77;;
23596;SDS011;40226;50.874;4.394;2024-01-11T14:13:46;49.30;;;24.45;;
23596;SDS011;40226;50.874;4.394;2024-01-11T14:16:11;51.85;;;24.00;;
23596;SDS011;40226;50.874;4.394;2024-01-11T14:18:39;48.33;;;24.23;;
23596;SDS011;40226;50.874;4.394;2024-01-11T14:21:05;59.65;;;28.75;;
23596;SDS011;40226;50.874;4.394;2024-01-11T14:23:30;48.50;;;23.73;;
23596;SDS011;40226;50.874;4.394;2024-01-11T14:25:56;50.58;;;23.02;;